HEAT 230700Z 17006KT CAVOK 30/11 Q1012 NOSIG
From batch tds/metars/production/2022/9/23/h07_m55_metars.cache.csv.gz
Observed at (9 days ago)
Identifier HEAT
talk